Tashtagol, Russia
Current Conditions -  °F | °C
As of 6:00 PM on Friday 31 Oct 2014 (Local Time) from UNAA Reporting Station
Broken Clouds Broken Clouds  
Wind Chill: 25°   Ceiling: 20000
Heat Index: 36°   Visibility: 6mi
Dew Point: 23°   Wind: 18mph
Humidity: 60%   Direction: 220°SW
Pressure: 30.24"   Gusts: NA
Location:  52.78°N, 87.88°E
Report Text: UNAA 311100Z 22008MPS 9999 SCT030CB BKN200 02/M05 Q1024 NOSIGRMK QFE745 20190055
Loading
Personal Weather Stations






























Interactive Weather Map
Tropical Storm Tracking
New forecast layout! Learn more

10-Day Weather Forecast

Advertisements
Track Severe Weather on mobile